Terminal Aerodrome Forecast
Issued by NWS

Home | Current Version | Previous Version | Text Only | Print | Product List | Glossary On
Versions: 1 2 3 4 5 6 7 8 9 10 11 12 13 14 15 16 17 18 19 20 21
000
FTUS41 KBUF 112337
TAFJHW
TAF
KJHW 112337Z 1200/1224 17007KT P6SM VCSH OVC030
     FM120200 17008KT 1SM -SN OVC035
     FM120700 16006KT 2SM -SN OVC020
     FM121000 25007KT 1SM -SN OVC007
     FM121400 30011G21KT 3/4SM -SN OVC007
     FM122200 28016G24KT 2SM -SN OVC020
      AMD LTD TO CLD VIS AND WIND=

USA.gov is the U.S. government's official web portal to all federal, state and local government web resources and services.